sensor_id;sensor_type;location;lat;lon;timestamp;pressure;altitude;pressure_sealevel;temperature;humidity
7407;BME280;3745;56.964;24.128;2023-04-08T00:01:23;102315.94;;;9.61;100.00
7407;BME280;3745;56.964;24.128;2023-04-08T00:03:48;102318.34;;;9.58;100.00
7407;BME280;3745;56.964;24.128;2023-04-08T00:06:14;102266.53;;;9.27;100.00
7407;BME280;3745;56.964;24.128;2023-04-08T00:08:40;102316.34;;;9.51;100.00
7407;BME280;3745;56.964;24.128;2023-04-08T00:11:06;102318.97;;;9.52;100.00
7407;BME280;3745;56.964;24.128;2023-04-08T00:13:31;102248.88;;;9.08;100.00
7407;BME280;3745;56.964;24.128;2023-04-08T00:15:57;102209.91;;;8.83;100.00
7407;BME280;3745;56.964;24.128;2023-04-08T00:18:23;102287.00;;;9.34;100.00
7407;BME280;3745;56.964;24.128;2023-04-08T00:20:49;102316.22;;;9.48;100.00
7407;BME280;3745;56.964;24.128;2023-04-08T00:23:15;102317.72;;;9.43;100.00
7407;BME280;3745;56.964;24.128;2023-04-08T00:25:41;102295.25;;;9.30;100.00
7407;BME280;3745;56.964;24.128;2023-04-08T00:28:06;102296.19;;;9.32;100.00
7407;BME280;3745;56.964;24.128;2023-04-08T00:30:32;102305.75;;;9.39;100.00
7407;BME280;3745;56.964;24.128;2023-04-08T00:32:57;102224.44;;;9.07;100.00
7407;BME280;3745;56.964;24.128;2023-04-08T00:35:23;102215.44;;;9.14;100.00
7407;BME280;3745;56.964;24.128;2023-04-08T00:37:49;102047.22;;;8.17;100.00
7407;BME280;3745;56.964;24.128;2023-04-08T00:40:14;102309.81;;;9.75;100.00
7407;BME280;3745;56.964;24.128;2023-04-08T00:42:40;102296.41;;;9.57;100.00
7407;BME280;3745;56.964;24.128;2023-04-08T00:45:06;102314.66;;;9.70;100.00
7407;BME280;3745;56.964;24.128;2023-04-08T00:47:34;102274.75;;;9.43;100.00
7407;BME280;3745;56.964;24.128;2023-04-08T00:50:00;102311.94;;;9.66;100.00
7407;BME280;3745;56.964;24.128;2023-04-08T00:52:25;102305.31;;;9.68;100.00
7407;BME280;3745;56.964;24.128;2023-04-08T00:54:51;102285.38;;;9.55;100.00
7407;BME280;3745;56.964;24.128;2023-04-08T00:57:17;102253.63;;;9.41;100.00
7407;BME280;3745;56.964;24.128;2023-04-08T00:59:42;102271.75;;;9.51;100.00
7407;BME280;3745;56.964;24.128;2023-04-08T01:05:17;102160.47;;;8.88;100.00
7407;BME280;3745;56.964;24.128;2023-04-08T01:07:49;102262.00;;;9.40;100.00
7407;BME280;3745;56.964;24.128;2023-04-08T01:10:35;102249.50;;;9.23;100.00
7407;BME280;3745;56.964;24.128;2023-04-08T01:13:08;102277.28;;;9.43;100.00
7407;BME280;3745;56.964;24.128;2023-04-08T01:15:37;102282.09;;;9.37;100.00
7407;BME280;3745;56.964;24.128;2023-04-08T01:18:07;102311.44;;;9.54;100.00
7407;BME280;3745;56.964;24.128;2023-04-08T01:20:33;102256.78;;;9.16;100.00
7407;BME280;3745;56.964;24.128;2023-04-08T01:25:34;102260.84;;;9.12;100.00
7407;BME280;3745;56.964;24.128;2023-04-08T01:28:06;102273.66;;;9.17;100.00
7407;BME280;3745;56.964;24.128;2023-04-08T01:30:33;102310.41;;;9.30;100.00
7407;BME280;3745;56.964;24.128;2023-04-08T01:33:01;102310.41;;;9.30;100.00
7407;BME280;3745;56.964;24.128;2023-04-08T01:35:30;102260.31;;;9.00;100.00
7407;BME280;3745;56.964;24.128;2023-04-08T01:37:57;102293.28;;;9.22;100.00
7407;BME280;3745;56.964;24.128;2023-04-08T01:40:23;102317.31;;;9.34;100.00
7407;BME280;3745;56.964;24.128;2023-04-08T01:42:52;102314.00;;;9.35;100.00
7407;BME280;3745;56.964;24.128;2023-04-08T01:45:19;102306.09;;;9.27;100.00
7407;BME280;3745;56.964;24.128;2023-04-08T01:47:45;102299.03;;;9.20;100.00
7407;BME280;3745;56.964;24.128;2023-04-08T01:50:13;102252.34;;;8.91;100.00
7407;BME280;3745;56.964;24.128;2023-04-08T01:52:40;102228.97;;;8.76;100.00
7407;BME280;3745;56.964;24.128;2023-04-08T01:55:07;102307.81;;;9.28;100.00
7407;BME280;3745;56.964;24.128;2023-04-08T01:57:36;102275.88;;;9.09;100.00
7407;BME280;3745;56.964;24.128;2023-04-08T02:00:07;102272.00;;;8.98;100.00
7407;BME280;3745;56.964;24.128;2023-04-08T02:02:35;102299.66;;;9.14;100.00
7407;BME280;3745;56.964;24.128;2023-04-08T02:05:02;102307.91;;;9.10;100.00
7407;BME280;3745;56.964;24.128;2023-04-08T02:07:28;102305.78;;;9.00;100.00
7407;BME280;3745;56.964;24.128;2023-04-08T02:09:55;102291.91;;;8.92;100.00
7407;BME280;3745;56.964;24.128;2023-04-08T02:12:21;102255.25;;;8.62;100.00
7407;BME280;3745;56.964;24.128;2023-04-08T02:14:47;102306.94;;;8.89;100.00
7407;BME280;3745;56.964;24.128;2023-04-08T02:19:52;102304.97;;;8.82;100.00
7407;BME280;3745;56.964;24.128;2023-04-08T02:22:30;102199.38;;;8.17;100.00
7407;BME280;3745;56.964;24.128;2023-04-08T02:25:03;102308.13;;;8.78;100.00
7407;BME280;3745;56.964;24.128;2023-04-08T02:27:33;102309.75;;;8.76;100.00
7407;BME280;3745;56.964;24.128;2023-04-08T02:30:04;102309.59;;;8.73;100.00
7407;BME280;3745;56.964;24.128;2023-04-08T02:32:32;102314.50;;;8.70;100.00
7407;BME280;3745;56.964;24.128;2023-04-08T02:35:00;102312.63;;;8.66;100.00
7407;BME280;3745;56.964;24.128;2023-04-08T02:37:29;102310.75;;;8.62;100.00
7407;BME280;3745;56.964;24.128;2023-04-08T02:39:55;102250.09;;;8.24;100.00
7407;BME280;3745;56.964;24.128;2023-04-08T02:42:20;102296.38;;;8.42;100.00
7407;BME280;3745;56.964;24.128;2023-04-08T02:44:46;102296.38;;;8.42;100.00
7407;BME280;3745;56.964;24.128;2023-04-08T02:47:12;102299.53;;;8.38;100.00
7407;BME280;3745;56.964;24.128;2023-04-08T02:49:37;102308.06;;;8.40;100.00
7407;BME280;3745;56.964;24.128;2023-04-08T02:52:03;102292.00;;;8.22;100.00
7407;BME280;3745;56.964;24.128;2023-04-08T02:54:29;102287.56;;;8.16;100.00
7407;BME280;3745;56.964;24.128;2023-04-08T02:56:55;102276.03;;;8.03;100.00
7407;BME280;3745;56.964;24.128;2023-04-08T02:59:20;102257.50;;;7.85;100.00
7407;BME280;3745;56.964;24.128;2023-04-08T03:01:46;102300.75;;;8.10;100.00
7407;BME280;3745;56.964;24.128;2023-04-08T03:04:11;102302.06;;;8.02;100.00
7407;BME280;3745;56.964;24.128;2023-04-08T03:06:37;102309.47;;;7.99;100.00
7407;BME280;3745;56.964;24.128;2023-04-08T03:09:02;102318.97;;;8.05;100.00
7407;BME280;3745;56.964;24.128;2023-04-08T03:11:30;102285.38;;;7.88;100.00
7407;BME280;3745;56.964;24.128;2023-04-08T03:13:56;102327.41;;;8.05;100.00
7407;BME280;3745;56.964;24.128;2023-04-08T03:16:22;102328.34;;;8.07;100.00
7407;BME280;3745;56.964;24.128;2023-04-08T03:18:51;102299.09;;;7.93;100.00
7407;BME280;3745;56.964;24.128;2023-04-08T03:21:17;102328.19;;;8.04;100.00
7407;BME280;3745;56.964;24.128;2023-04-08T03:23:43;102324.16;;;8.08;100.00
7407;BME280;3745;56.964;24.128;2023-04-08T03:26:10;102329.06;;;8.05;100.00
7407;BME280;3745;56.964;24.128;2023-04-08T03:28:36;102327.31;;;8.04;100.00
7407;BME280;3745;56.964;24.128;2023-04-08T03:31:02;102336.53;;;8.03;100.00
7407;BME280;3745;56.964;24.128;2023-04-08T03:33:28;102338.56;;;7.93;100.00
7407;BME280;3745;56.964;24.128;2023-04-08T03:35:54;102340.84;;;7.88;100.00
7407;BME280;3745;56.964;24.128;2023-04-08T03:38:20;102339.75;;;7.83;100.00
7407;BME280;3745;56.964;24.128;2023-04-08T03:40:45;102349.84;;;7.83;100.00
7407;BME280;3745;56.964;24.128;2023-04-08T03:43:12;102310.97;;;7.62;100.00
7407;BME280;3745;56.964;24.128;2023-04-08T03:45:37;102346.16;;;7.77;100.00
7407;BME280;3745;56.964;24.128;2023-04-08T03:48:03;102345.13;;;7.73;100.00
7407;BME280;3745;56.964;24.128;2023-04-08T03:50:29;102347.59;;;7.72;100.00
7407;BME280;3745;56.964;24.128;2023-04-08T03:52:54;102325.78;;;7.56;100.00
7407;BME280;3745;56.964;24.128;2023-04-08T03:55:20;102306.59;;;7.42;100.00
7407;BME280;3745;56.964;24.128;2023-04-08T03:57:46;102342.47;;;7.54;100.00
7407;BME280;3745;56.964;24.128;2023-04-08T04:00:12;102348.69;;;7.60;100.00
7407;BME280;3745;56.964;24.128;2023-04-08T04:02:38;102332.75;;;7.44;100.00
7407;BME280;3745;56.964;24.128;2023-04-08T04:05:04;102357.72;;;7.57;100.00
7407;BME280;3745;56.964;24.128;2023-04-08T04:07:30;102332.94;;;7.48;100.00
7407;BME280;3745;56.964;24.128;2023-04-08T04:09:55;102256.53;;;6.98;100.00
7407;BME280;3745;56.964;24.128;2023-04-08T04:12:22;102359.63;;;7.61;100.00
7407;BME280;3745;56.964;24.128;2023-04-08T04:14:48;102357.72;;;7.57;100.00
7407;BME280;3745;56.964;24.128;2023-04-08T04:17:13;102367.81;;;7.57;100.00
7407;BME280;3745;56.964;24.128;2023-04-08T04:19:39;102368.84;;;7.60;100.00
7407;BME280;3745;56.964;24.128;2023-04-08T04:22:04;102300.63;;;7.24;100.00
7407;BME280;3745;56.964;24.128;2023-04-08T04:24:30;102366.25;;;7.59;100.00
7407;BME280;3745;56.964;24.128;2023-04-08T04:26:56;102146.03;;;6.22;100.00
7407;BME280;3745;56.964;24.128;2023-04-08T04:29:21;102300.25;;;7.16;100.00
7407;BME280;3745;56.964;24.128;2023-04-08T04:31:47;102281.13;;;7.03;100.00
7407;BME280;3745;56.964;24.128;2023-04-08T04:34:12;102342.00;;;7.45;100.00
7407;BME280;3745;56.964;24.128;2023-04-08T04:36:38;102348.94;;;7.49;100.00
7407;BME280;3745;56.964;24.128;2023-04-08T04:39:04;102247.94;;;6.94;100.00
7407;BME280;3745;56.964;24.128;2023-04-08T04:41:30;102370.97;;;7.53;100.00
7407;BME280;3745;56.964;24.128;2023-04-08T04:43:55;102340.13;;;7.41;100.00
7407;BME280;3745;56.964;24.128;2023-04-08T04:46:21;102331.31;;;7.33;100.00
7407;BME280;3745;56.964;24.128;2023-04-08T04:48:46;102375.78;;;7.64;100.00
7407;BME280;3745;56.964;24.128;2023-04-08T04:51:12;102378.66;;;7.72;100.00
7407;BME280;3745;56.964;24.128;2023-04-08T04:53:37;102261.47;;;7.13;100.00
7407;BME280;3745;56.964;24.128;2023-04-08T04:56:03;102375.66;;;7.79;100.00
7407;BME280;3745;56.964;24.128;2023-04-08T04:58:29;102376.78;;;7.84;100.00
7407;BME280;3745;56.964;24.128;2023-04-08T05:00:55;102346.41;;;7.65;100.00
7407;BME280;3745;56.964;24.128;2023-04-08T05:03:21;102347.91;;;7.61;100.00
7407;BME280;3745;56.964;24.128;2023-04-08T05:05:53;102313.53;;;7.46;100.00
7407;BME280;3745;56.964;24.128;2023-04-08T05:08:19;102379.31;;;7.84;100.00
7407;BME280;3745;56.964;24.128;2023-04-08T05:10:45;102377.09;;;7.74;100.00
7407;BME280;3745;56.964;24.128;2023-04-08T05:13:11;102385.91;;;7.82;100.00
7407;BME280;3745;56.964;24.128;2023-04-08T05:15:36;102350.28;;;7.58;100.00
7407;BME280;3745;56.964;24.128;2023-04-08T05:18:02;102363.72;;;7.75;100.00
7407;BME280;3745;56.964;24.128;2023-04-08T05:20:27;102382.91;;;7.89;100.00
7407;BME280;3745;56.964;24.128;2023-04-08T05:22:53;102379.16;;;7.81;100.00
7407;BME280;3745;56.964;24.128;2023-04-08T05:25:19;102398.47;;;7.98;100.00
7407;BME280;3745;56.964;24.128;2023-04-08T05:27:45;102387.97;;;8.07;100.00
7407;BME280;3745;56.964;24.128;2023-04-08T05:30:11;102400.81;;;8.11;100.00
7407;BME280;3745;56.964;24.128;2023-04-08T05:32:37;102399.38;;;8.16;100.00
7407;BME280;3745;56.964;24.128;2023-04-08T05:35:03;102406.31;;;8.21;100.00
7407;BME280;3745;56.964;24.128;2023-04-08T05:37:29;102395.75;;;8.28;100.00
7407;BME280;3745;56.964;24.128;2023-04-08T05:39:55;102341.72;;;8.06;100.00
7407;BME280;3745;56.964;24.128;2023-04-08T05:42:20;102397.56;;;8.48;100.00
7407;BME280;3745;56.964;24.128;2023-04-08T05:44:46;102320.13;;;8.11;100.00
7407;BME280;3745;56.964;24.128;2023-04-08T05:47:12;102391.66;;;8.65;100.00
7407;BME280;3745;56.964;24.128;2023-04-08T05:49:39;102387.63;;;8.68;100.00
7407;BME280;3745;56.964;24.128;2023-04-08T05:52:05;102393.44;;;8.85;100.00
7407;BME280;3745;56.964;24.128;2023-04-08T05:54:31;102398.25;;;8.98;100.00
7407;BME280;3745;56.964;24.128;2023-04-08T05:56:57;102399.75;;;9.12;100.00
7407;BME280;3745;56.964;24.128;2023-04-08T05:59:22;102382.63;;;9.24;100.00
7407;BME280;3745;56.964;24.128;2023-04-08T06:01:48;102374.66;;;9.35;100.00
7407;BME280;3745;56.964;24.128;2023-04-08T06:04:14;102340.19;;;9.17;100.00
7407;BME280;3745;56.964;24.128;2023-04-08T06:06:42;102396.69;;;9.77;100.00
7407;BME280;3745;56.964;24.128;2023-04-08T06:09:08;102400.41;;;9.85;100.00
7407;BME280;3745;56.964;24.128;2023-04-08T06:11:34;102406.09;;;10.00;100.00
7407;BME280;3745;56.964;24.128;2023-04-08T06:14:00;102409.69;;;10.05;100.00
7407;BME280;3745;56.964;24.128;2023-04-08T06:16:26;102404.50;;;10.02;100.00
7407;BME280;3745;56.964;24.128;2023-04-08T06:18:51;102309.03;;;9.57;100.00
7407;BME280;3745;56.964;24.128;2023-04-08T06:21:17;102381.16;;;10.09;100.00
7407;BME280;3745;56.964;24.128;2023-04-08T06:23:42;102411.16;;;10.19;100.00
7407;BME280;3745;56.964;24.128;2023-04-08T06:26:08;102390.34;;;10.06;100.00
7407;BME280;3745;56.964;24.128;2023-04-08T06:28:34;102382.66;;;10.04;100.00
7407;BME280;3745;56.964;24.128;2023-04-08T06:31:00;102411.50;;;10.28;100.00
7407;BME280;3745;56.964;24.128;2023-04-08T06:33:25;102416.69;;;10.31;100.00
7407;BME280;3745;56.964;24.128;2023-04-08T06:35:51;102390.59;;;10.32;100.00
7407;BME280;3745;56.964;24.128;2023-04-08T06:38:17;102356.75;;;10.10;100.00
7407;BME280;3745;56.964;24.128;2023-04-08T06:40:42;102317.88;;;10.08;100.00
7407;BME280;3745;56.964;24.128;2023-04-08T06:43:08;102412.41;;;10.72;100.00
7407;BME280;3745;56.964;24.128;2023-04-08T06:45:34;102407.81;;;10.84;100.00
7407;BME280;3745;56.964;24.128;2023-04-08T06:47:59;102365.44;;;10.80;100.00
7407;BME280;3745;56.964;24.128;2023-04-08T06:50:25;102420.59;;;11.09;100.00
7407;BME280;3745;56.964;24.128;2023-04-08T06:52:51;102400.09;;;11.03;100.00
7407;BME280;3745;56.964;24.128;2023-04-08T06:55:17;102414.25;;;11.20;100.00
7407;BME280;3745;56.964;24.128;2023-04-08T06:57:42;102413.44;;;11.21;100.00
7407;BME280;3745;56.964;24.128;2023-04-08T07:00:09;102412.97;;;11.31;100.00
7407;BME280;3745;56.964;24.128;2023-04-08T07:02:34;102413.44;;;11.43;100.00
7407;BME280;3745;56.964;24.128;2023-04-08T07:05:00;102394.63;;;11.38;100.00
7407;BME280;3745;56.964;24.128;2023-04-08T07:07:26;102318.13;;;11.01;100.00
7407;BME280;3745;56.964;24.128;2023-04-08T07:09:52;102409.44;;;11.74;100.00
7407;BME280;3745;56.964;24.128;2023-04-08T07:12:17;102318.59;;;11.38;100.00
7407;BME280;3745;56.964;24.128;2023-04-08T07:14:43;102413.94;;;12.06;100.00
7407;BME280;3745;56.964;24.128;2023-04-08T07:17:08;102360.00;;;11.63;100.00
7407;BME280;3745;56.964;24.128;2023-04-08T07:19:34;102423.13;;;12.03;100.00
7407;BME280;3745;56.964;24.128;2023-04-08T07:22:00;102418.66;;;12.21;100.00
7407;BME280;3745;56.964;24.128;2023-04-08T07:24:25;102427.53;;;12.33;100.00
7407;BME280;3745;56.964;24.128;2023-04-08T07:26:51;102413.31;;;12.38;100.00
7407;BME280;3745;56.964;24.128;2023-04-08T07:29:17;102430.84;;;12.58;100.00
7407;BME280;3745;56.964;24.128;2023-04-08T07:31:42;102372.97;;;12.21;100.00
7407;BME280;3745;56.964;24.128;2023-04-08T07:34:08;102407.56;;;12.44;100.00
7407;BME280;3745;56.964;24.128;2023-04-08T07:36:34;102425.47;;;12.75;100.00
7407;BME280;3745;56.964;24.128;2023-04-08T07:39:00;102419.91;;;12.87;100.00
7407;BME280;3745;56.964;24.128;2023-04-08T07:41:26;102413.81;;;12.82;100.00
7407;BME280;3745;56.964;24.128;2023-04-08T07:43:52;102403.00;;;12.89;100.00
7407;BME280;3745;56.964;24.128;2023-04-08T07:46:18;102409.47;;;13.06;100.00
7407;BME280;3745;56.964;24.128;2023-04-08T07:48:44;102405.88;;;12.99;100.00
7407;BME280;3745;56.964;24.128;2023-04-08T07:51:10;102390.72;;;13.02;100.00
7407;BME280;3745;56.964;24.128;2023-04-08T07:53:36;102422.81;;;13.27;100.00
7407;BME280;3745;56.964;24.128;2023-04-08T07:56:02;102423.00;;;13.33;100.00
7407;BME280;3745;56.964;24.128;2023-04-08T07:58:30;102429.91;;;13.37;100.00
7407;BME280;3745;56.964;24.128;2023-04-08T08:00:56;102425.47;;;13.62;100.00
7407;BME280;3745;56.964;24.128;2023-04-08T08:03:22;102424.22;;;13.79;100.00
7407;BME280;3745;56.964;24.128;2023-04-08T08:05:48;102402.84;;;13.72;100.00
7407;BME280;3745;56.964;24.128;2023-04-08T08:08:14;102426.34;;;13.95;100.00
7407;BME280;3745;56.964;24.128;2023-04-08T08:10:40;102426.34;;;13.95;100.00
7407;BME280;3745;56.964;24.128;2023-04-08T08:13:06;102411.31;;;14.04;100.00
7407;BME280;3745;56.964;24.128;2023-04-08T08:15:32;102388.84;;;13.88;100.00
7407;BME280;3745;56.964;24.128;2023-04-08T08:17:58;102412.97;;;14.02;100.00
7407;BME280;3745;56.964;24.128;2023-04-08T08:20:23;102397.53;;;13.96;100.00
7407;BME280;3745;56.964;24.128;2023-04-08T08:22:49;102413.19;;;14.11;100.00
7407;BME280;3745;56.964;24.128;2023-04-08T08:25:15;102409.28;;;14.25;100.00
7407;BME280;3745;56.964;24.128;2023-04-08T08:27:42;102405.44;;;14.39;100.00
7407;BME280;3745;56.964;24.128;2023-04-08T08:30:08;102353.72;;;14.09;100.00
7407;BME280;3745;56.964;24.128;2023-04-08T08:32:34;102388.50;;;14.41;100.00
7407;BME280;3745;56.964;24.128;2023-04-08T08:35:00;102411.09;;;14.63;100.00
7407;BME280;3745;56.964;24.128;2023-04-08T08:37:26;102398.97;;;14.53;100.00
7407;BME280;3745;56.964;24.128;2023-04-08T08:39:51;102385.69;;;14.67;100.00
7407;BME280;3745;56.964;24.128;2023-04-08T08:42:21;102409.22;;;14.94;100.00
7407;BME280;3745;56.964;24.128;2023-04-08T08:44:48;102296.34;;;14.23;100.00
7407;BME280;3745;56.964;24.128;2023-04-08T08:47:14;102417.50;;;14.84;100.00
7407;BME280;3745;56.964;24.128;2023-04-08T08:49:40;102419.75;;;14.72;100.00
7407;BME280;3745;56.964;24.128;2023-04-08T08:52:06;102416.53;;;14.79;100.00
7407;BME280;3745;56.964;24.128;2023-04-08T08:54:31;102409.72;;;14.78;100.00
7407;BME280;3745;56.964;24.128;2023-04-08T08:56:57;102393.59;;;14.79;100.00
7407;BME280;3745;56.964;24.128;2023-04-08T08:59:23;102365.22;;;14.63;100.00
7407;BME280;3745;56.964;24.128;2023-04-08T09:01:49;102409.44;;;15.04;100.00
7407;BME280;3745;56.964;24.128;2023-04-08T09:04:16;102391.63;;;15.06;100.00
7407;BME280;3745;56.964;24.128;2023-04-08T09:06:45;102392.06;;;15.27;100.00
7407;BME280;3745;56.964;24.128;2023-04-08T09:09:12;102416.28;;;15.47;100.00
7407;BME280;3745;56.964;24.128;2023-04-08T09:11:39;102391.88;;;15.18;100.00
7407;BME280;3745;56.964;24.128;2023-04-08T09:14:17;102415.06;;;15.29;100.00
7407;BME280;3745;56.964;24.128;2023-04-08T09:16:42;102338.28;;;14.75;100.00
7407;BME280;3745;56.964;24.128;2023-04-08T09:19:10;102368.50;;;14.98;100.00
7407;BME280;3745;56.964;24.128;2023-04-08T09:21:37;102413.34;;;15.29;100.00
7407;BME280;3745;56.964;24.128;2023-04-08T09:24:03;102397.28;;;15.33;100.00
7407;BME280;3745;56.964;24.128;2023-04-08T09:26:28;102408.03;;;15.60;100.00
7407;BME280;3745;56.964;24.128;2023-04-08T09:29:05;102399.94;;;15.83;100.00
7407;BME280;3745;56.964;24.128;2023-04-08T09:31:34;102418.53;;;15.76;100.00
7407;BME280;3745;56.964;24.128;2023-04-08T09:34:15;102391.56;;;15.90;100.00
7407;BME280;3745;56.964;24.128;2023-04-08T09:36:42;102403.72;;;16.06;100.00
7407;BME280;3745;56.964;24.128;2023-04-08T09:39:09;102388.19;;;15.94;100.00
7407;BME280;3745;56.964;24.128;2023-04-08T09:41:35;102417.75;;;16.29;100.00
7407;BME280;3745;56.964;24.128;2023-04-08T09:44:04;102375.41;;;16.46;100.00
7407;BME280;3745;56.964;24.128;2023-04-08T09:49:34;102402.25;;;16.72;100.00
7407;BME280;3745;56.964;24.128;2023-04-08T09:52:24;102416.59;;;16.64;100.00
7407;BME280;3745;56.964;24.128;2023-04-08T09:55:01;102338.91;;;15.98;100.00
7407;BME280;3745;56.964;24.128;2023-04-08T09:57:49;102379.72;;;15.95;100.00
7407;BME280;3745;56.964;24.128;2023-04-08T10:00:18;102399.72;;;15.70;100.00
7407;BME280;3745;56.964;24.128;2023-04-08T10:05:45;102368.28;;;15.28;100.00
7407;BME280;3745;56.964;24.128;2023-04-08T10:08:11;102430.31;;;15.67;100.00
7407;BME280;3745;56.964;24.128;2023-04-08T10:10:39;102385.81;;;15.53;100.00
7407;BME280;3745;56.964;24.128;2023-04-08T10:13:06;102425.19;;;15.67;100.00
7407;BME280;3745;56.964;24.128;2023-04-08T10:15:35;102435.16;;;15.55;100.00
7407;BME280;3745;56.964;24.128;2023-04-08T10:22:59;102423.78;;;15.40;100.00
7407;BME280;3745;56.964;24.128;2023-04-08T10:25:29;102429.19;;;15.13;100.00
7407;BME280;3745;56.964;24.128;2023-04-08T10:27:56;102410.47;;;15.14;100.00
7407;BME280;3745;56.964;24.128;2023-04-08T10:32:53;102428.72;;;14.92;100.00
7407;BME280;3745;56.964;24.128;2023-04-08T10:35:37;102425.59;;;15.05;100.00
7407;BME280;3745;56.964;24.128;2023-04-08T10:38:07;102433.84;;;14.92;100.00
7407;BME280;3745;56.964;24.128;2023-04-08T10:40:37;102421.28;;;14.63;100.00
7407;BME280;3745;56.964;24.128;2023-04-08T10:43:03;102424.72;;;14.65;100.00
7407;BME280;3745;56.964;24.128;2023-04-08T10:45:32;102364.13;;;14.18;100.00
7407;BME280;3745;56.964;24.128;2023-04-08T10:48:25;102426.88;;;14.15;100.00
7407;BME280;3745;56.964;24.128;2023-04-08T10:50:58;102424.78;;;14.00;100.00
7407;BME280;3745;56.964;24.128;2023-04-08T10:53:28;102427.94;;;13.90;100.00
7407;BME280;3745;56.964;24.128;2023-04-08T10:56:03;102352.91;;;13.43;100.00
7407;BME280;3745;56.964;24.128;2023-04-08T10:58:30;102388.03;;;13.89;100.00
7407;BME280;3745;56.964;24.128;2023-04-08T11:01:05;102427.53;;;14.40;100.00
7407;BME280;3745;56.964;24.128;2023-04-08T11:03:32;102354.13;;;14.24;100.00
7407;BME280;3745;56.964;24.128;2023-04-08T11:06:01;102345.63;;;14.25;100.00
7407;BME280;3745;56.964;24.128;2023-04-08T11:08:31;102412.53;;;14.52;100.00
7407;BME280;3745;56.964;24.128;2023-04-08T11:10:57;102402.31;;;14.17;100.00
7407;BME280;3745;56.964;24.128;2023-04-08T11:13:26;102427.19;;;14.28;100.00
7407;BME280;3745;56.964;24.128;2023-04-08T11:15:53;102379.50;;;14.21;100.00
7407;BME280;3745;56.964;24.128;2023-04-08T11:18:21;102370.78;;;13.77;100.00
7407;BME280;3745;56.964;24.128;2023-04-08T11:20:49;102375.06;;;13.80;100.00
7407;BME280;3745;56.964;24.128;2023-04-08T11:23:16;102406.38;;;14.10;100.00
7407;BME280;3745;56.964;24.128;2023-04-08T11:25:42;102426.59;;;14.04;100.00
7407;BME280;3745;56.964;24.128;2023-04-08T11:28:18;102400.34;;;13.74;100.00
7407;BME280;3745;56.964;24.128;2023-04-08T11:30:44;102430.25;;;13.81;100.00
7407;BME280;3745;56.964;24.128;2023-04-08T11:33:12;102427.47;;;13.72;100.00
7407;BME280;3745;56.964;24.128;2023-04-08T11:35:42;102435.56;;;13.58;100.00
7407;BME280;3745;56.964;24.128;2023-04-08T11:38:09;102426.84;;;13.50;100.00
7407;BME280;3745;56.964;24.128;2023-04-08T11:40:34;102426.28;;;13.61;100.00
7407;BME280;3745;56.964;24.128;2023-04-08T11:43:08;102403.75;;;13.43;100.00
7407;BME280;3745;56.964;24.128;2023-04-08T11:45:39;102420.06;;;13.49;100.00
7407;BME280;3745;56.964;24.128;2023-04-08T11:48:13;102426.78;;;13.47;100.00
7407;BME280;3745;56.964;24.128;2023-04-08T11:50:39;102370.06;;;13.20;100.00
7407;BME280;3745;56.964;24.128;2023-04-08T11:53:24;102355.91;;;13.28;100.00
7407;BME280;3745;56.964;24.128;2023-04-08T11:55:52;102409.28;;;13.58;100.00
7407;BME280;3745;56.964;24.128;2023-04-08T11:58:18;102422.44;;;13.43;100.00
7407;BME280;3745;56.964;24.128;2023-04-08T12:00:44;102369.09;;;13.15;100.00
7407;BME280;3745;56.964;24.128;2023-04-08T12:03:13;102335.66;;;13.03;100.00
7407;BME280;3745;56.964;24.128;2023-04-08T12:05:39;102363.59;;;13.31;100.00
7407;BME280;3745;56.964;24.128;2023-04-08T12:08:05;102398.72;;;13.76;100.00
7407;BME280;3745;56.964;24.128;2023-04-08T12:10:31;102419.38;;;13.88;100.00
7407;BME280;3745;56.964;24.128;2023-04-08T12:12:57;102352.81;;;13.73;100.00
7407;BME280;3745;56.964;24.128;2023-04-08T12:15:26;102403.03;;;14.11;100.00
7407;BME280;3745;56.964;24.128;2023-04-08T12:17:51;102397.41;;;13.91;100.00
7407;BME280;3745;56.964;24.128;2023-04-08T12:20:17;102418.09;;;14.03;100.00
7407;BME280;3745;56.964;24.128;2023-04-08T12:22:43;102347.50;;;13.64;100.00
7407;BME280;3745;56.964;24.128;2023-04-08T12:25:08;102394.63;;;13.82;100.00
7407;BME280;3745;56.964;24.128;2023-04-08T12:27:34;102418.28;;;14.11;100.00
7407;BME280;3745;56.964;24.128;2023-04-08T12:30:01;102409.66;;;14.06;100.00
7407;BME280;3745;56.964;24.128;2023-04-08T12:32:27;102377.84;;;13.89;100.00
7407;BME280;3745;56.964;24.128;2023-04-08T12:34:53;102407.97;;;14.05;100.00
7407;BME280;3745;56.964;24.128;2023-04-08T12:37:18;102409.50;;;14.00;100.00
7407;BME280;3745;56.964;24.128;2023-04-08T12:39:47;102412.50;;;13.84;100.00
7407;BME280;3745;56.964;24.128;2023-04-08T12:42:16;102407.44;;;13.54;100.00
7407;BME280;3745;56.964;24.128;2023-04-08T12:44:41;102393.03;;;13.23;100.00
7407;BME280;3745;56.964;24.128;2023-04-08T12:47:07;102371.06;;;12.97;100.00
7407;BME280;3745;56.964;24.128;2023-04-08T12:49:33;102356.19;;;13.09;100.00
7407;BME280;3745;56.964;24.128;2023-04-08T12:51:59;102388.78;;;13.22;100.00
7407;BME280;3745;56.964;24.128;2023-04-08T12:54:24;102370.63;;;12.82;100.00
7407;BME280;3745;56.964;24.128;2023-04-08T12:56:50;102378.88;;;12.75;100.00
7407;BME280;3745;56.964;24.128;2023-04-08T12:59:15;102376.59;;;12.84;100.00
7407;BME280;3745;56.964;24.128;2023-04-08T13:01:41;102346.19;;;12.59;100.00
7407;BME280;3745;56.964;24.128;2023-04-08T13:04:07;102389.50;;;12.90;100.00
7407;BME280;3745;56.964;24.128;2023-04-08T13:06:32;102318.94;;;12.52;100.00
7407;BME280;3745;56.964;24.128;2023-04-08T13:08:58;102354.75;;;12.61;100.00
7407;BME280;3745;56.964;24.128;2023-04-08T13:11:24;102387.97;;;12.67;100.00
7407;BME280;3745;56.964;24.128;2023-04-08T13:13:50;102390.69;;;12.73;100.00
7407;BME280;3745;56.964;24.128;2023-04-08T13:16:16;102388.41;;;12.54;100.00